Time;durP1;ratioP1;P1;durP2;ratioP2;P2;SDS_P1;SDS_P2;PMS_P1;PMS_P2;Temp;Humidity;BMP_temperature;BMP_pressure;BME280_temperature;BME280_humidity;BME280_pressure;Samples;Min_cycle;Max_cycle;Signal;HPM_P1;HPM_P2
2023/12/31 00:00:41;;;;;;;12.37;4.27;;;;;;;2.87;100.00;99997.06;4242057;28;20267;-74
2023/12/31 00:03:08;;;;;;;13.90;4.40;;;;;;;2.85;100.00;100005.19;4249323;28;20374;-74
2023/12/31 00:05:35;;;;;;;12.57;4.27;;;;;;;2.74;100.00;99997.09;4245669;28;22065;-76
2023/12/31 00:08:02;;;;;;;16.40;4.93;;;;;;;2.63;100.00;100002.31;4240798;28;20230;-77
2023/12/31 00:10:28;;;;;;;13.17;4.50;;;;;;;2.59;100.00;99991.00;4237165;28;22261;-80
2023/12/31 00:12:55;;;;;;;11.63;3.37;;;;;;;2.57;100.00;99992.06;4241994;28;20234;-77
2023/12/31 00:15:21;;;;;;;6.63;3.10;;;;;;;2.48;100.00;99994.41;4234290;28;20249;-74
2023/12/31 00:17:48;;;;;;;12.87;3.30;;;;;;;2.50;100.00;99986.28;4224103;28;20261;-77
2023/12/31 00:20:14;;;;;;;10.47;3.20;;;;;;;2.47;100.00;99995.38;4239955;28;20461;-76
2023/12/31 00:22:41;;;;;;;10.03;3.27;;;;;;;2.40;100.00;99987.91;4243945;28;21590;-77
2023/12/31 00:25:08;;;;;;;10.47;3.73;;;;;;;2.31;100.00;99994.72;4244302;28;20479;-76
2023/12/31 00:27:35;;;;;;;11.20;4.57;;;;;;;2.21;100.00;99990.03;4219515;28;20356;-77
2023/12/31 00:30:02;;;;;;;10.47;4.47;;;;;;;2.17;100.00;99993.84;4236116;28;20231;-74
2023/12/31 00:32:28;;;;;;;12.80;4.53;;;;;;;2.12;100.00;99997.78;4240261;28;20295;-79
2023/12/31 00:34:55;;;;;;;12.97;5.77;;;;;;;2.16;100.00;99991.28;4237440;28;21849;-75
2023/12/31 00:37:22;;;;;;;13.53;3.97;;;;;;;2.18;100.00;99998.25;4244765;28;21867;-79
2023/12/31 00:39:48;;;;;;;14.83;4.23;;;;;;;2.11;100.00;99993.44;4245944;28;22147;-77
2023/12/31 00:42:15;;;;;;;11.50;4.27;;;;;;;2.04;100.00;100011.66;4241311;28;20810;-77
2023/12/31 00:44:41;;;;;;;9.33;4.10;;;;;;;1.97;100.00;100005.88;4245103;28;20299;-76
2023/12/31 00:47:08;;;;;;;11.47;4.30;;;;;;;1.92;100.00;100009.84;4249658;28;20474;-75
2023/12/31 00:49:34;;;;;;;9.27;3.67;;;;;;;1.91;100.00;100008.97;4238139;28;21738;-75
2023/12/31 00:52:01;;;;;;;11.70;4.10;;;;;;;1.90;100.00;100016.13;4240403;28;20417;-74
2023/12/31 00:54:28;;;;;;;12.13;5.03;;;;;;;1.84;100.00;100013.88;4236569;28;20228;-75
2023/12/31 00:56:55;;;;;;;11.93;4.70;;;;;;;1.78;100.00;100018.75;4240945;28;21240;-78
2023/12/31 00:59:21;;;;;;;13.73;5.20;;;;;;;1.71;100.00;100013.81;4239310;28;20521;-75
2023/12/31 01:01:50;;;;;;;13.03;5.70;;;;;;;1.68;100.00;100019.34;4240603;28;20237;-77
2023/12/31 01:04:17;;;;;;;16.07;5.50;;;;;;;1.64;100.00;100022.31;4225469;28;21601;-76
2023/12/31 01:06:43;;;;;;;17.37;6.07;;;;;;;1.61;100.00;100022.53;4243416;28;20344;-76
2023/12/31 01:09:10;;;;;;;17.23;6.30;;;;;;;1.77;100.00;100028.56;4252823;28;20229;-77
2023/12/31 01:11:37;;;;;;;17.57;6.07;;;;;;;1.87;100.00;100020.81;4241780;28;21730;-75
2023/12/31 01:14:04;;;;;;;16.27;7.23;;;;;;;2.03;100.00;100034.84;4244359;28;21541;-76
2023/12/31 01:16:30;;;;;;;17.67;7.37;;;;;;;2.04;100.00;100023.19;4242495;28;22711;-79
2023/12/31 01:18:57;;;;;;;18.90;6.97;;;;;;;2.03;100.00;100026.84;4233507;28;21226;-75
2023/12/31 01:21:24;;;;;;;17.07;7.57;;;;;;;2.17;100.00;100028.56;4259273;28;20666;-77
2023/12/31 01:23:50;;;;;;;20.97;7.43;;;;;;;2.21;100.00;100030.09;4245284;28;22309;-78
2023/12/31 01:26:17;;;;;;;17.17;6.47;;;;;;;2.18;100.00;100034.78;4241349;28;20231;-73
2023/12/31 01:28:43;;;;;;;18.87;8.00;;;;;;;2.12;100.00;100038.72;4251726;28;20238;-74
2023/12/31 01:31:18;;;;;;;20.20;7.37;;;;;;;2.10;100.00;100040.63;4254993;28;20237;-75
2023/12/31 01:33:45;;;;;;;18.77;7.13;;;;;;;2.12;100.00;100040.50;4246702;28;20896;-76
2023/12/31 01:36:15;;;;;;;20.40;9.13;;;;;;;2.08;100.00;100039.03;4253167;28;20238;-76
2023/12/31 01:38:44;;;;;;;18.80;8.60;;;;;;;2.21;100.00;100039.91;4262040;28;20230;-77
2023/12/31 01:41:11;;;;;;;18.73;8.20;;;;;;;2.35;100.00;100041.66;4246848;28;20248;-77
2023/12/31 01:43:38;;;;;;;24.83;8.63;;;;;;;2.34;100.00;100039.94;4244138;28;20233;-75
2023/12/31 01:46:05;;;;;;;24.60;8.03;;;;;;;2.17;100.00;100044.59;4248559;28;25769;-73
2023/12/31 01:48:34;;;;;;;20.77;8.33;;;;;;;2.09;100.00;100038.91;4245846;28;20243;-73
2023/12/31 01:51:02;;;;;;;20.77;8.67;;;;;;;1.98;100.00;100047.63;4245930;28;20252;-75
2023/12/31 01:53:29;;;;;;;20.40;9.40;;;;;;;1.94;100.00;100050.59;4233946;28;21497;-76
2023/12/31 01:55:58;;;;;;;26.10;8.47;;;;;;;1.94;100.00;100047.94;4259813;28;21688;-79
2023/12/31 01:58:25;;;;;;;24.13;9.03;;;;;;;1.90;100.00;100050.81;4250150;28;20756;-74
2023/12/31 02:00:52;;;;;;;25.97;9.50;;;;;;;1.87;100.00;100050.19;4243570;28;20297;-74
2023/12/31 02:03:18;;;;;;;23.80;9.20;;;;;;;1.85;100.00;100047.59;4240446;28;20305;-74
2023/12/31 02:05:46;;;;;;;23.33;9.47;;;;;;;1.87;100.00;100047.50;4245272;28;21923;-74
2023/12/31 02:08:13;;;;;;;19.60;8.80;;;;;;;1.92;100.00;100045.38;4253699;28;20247;-74
2023/12/31 02:10:39;;;;;;;23.50;9.43;;;;;;;1.87;100.00;100043.00;4249629;28;21794;-75
2023/12/31 02:13:06;;;;;;;19.37;9.07;;;;;;;1.89;100.00;100051.78;4247176;28;20756;-75
2023/12/31 02:15:34;;;;;;;19.77;8.73;;;;;;;1.95;100.00;100052.31;4249756;28;20233;-74
2023/12/31 02:18:02;;;;;;;25.93;9.33;;;;;;;1.95;100.00;100044.31;4240275;28;20230;-74
2023/12/31 02:20:30;;;;;;;20.23;9.30;;;;;;;1.87;100.00;100040.34;4237762;28;20234;-76
2023/12/31 02:22:57;;;;;;;18.70;7.93;;;;;;;1.85;100.00;100047.59;4242550;28;20239;-73
2023/12/31 02:25:27;;;;;;;22.33;8.43;;;;;;;1.90;100.00;100047.28;4239682;28;20306;-75
2023/12/31 02:27:55;;;;;;;19.77;8.40;;;;;;;1.95;100.00;100057.66;4234943;28;20280;-77
2023/12/31 02:30:23;;;;;;;20.87;8.23;;;;;;;1.95;100.00;100052.31;4230113;28;21637;-75
2023/12/31 02:32:49;;;;;;;22.53;8.50;;;;;;;2.00;100.00;100047.56;4243550;28;21006;-75
2023/12/31 02:35:16;;;;;;;24.27;9.10;;;;;;;2.08;100.00;100052.38;4226678;28;20288;-74
2023/12/31 02:37:43;;;;;;;16.43;8.43;;;;;;;1.98;100.00;100046.78;4244071;28;22305;-75
2023/12/31 02:40:10;;;;;;;16.03;7.53;;;;;;;1.95;100.00;100046.97;4254316;28;20647;-76
2023/12/31 02:42:37;;;;;;;20.13;8.77;;;;;;;1.97;100.00;100045.91;4238154;28;20522;-74
2023/12/31 02:45:04;;;;;;;19.40;8.60;;;;;;;1.92;100.00;100048.03;4242750;28;21758;-76
2023/12/31 02:47:30;;;;;;;18.83;8.93;;;;;;;1.93;100.00;100048.91;4234789;28;20233;-76
2023/12/31 02:49:57;;;;;;;18.07;8.13;;;;;;;1.89;100.00;100062.47;4229052;28;21999;-77
2023/12/31 02:52:23;;;;;;;20.07;8.30;;;;;;;1.83;100.00;100043.31;4230693;28;20233;-75
2023/12/31 02:54:50;;;;;;;19.10;8.57;;;;;;;1.82;100.00;100053.16;4246981;28;22769;-78
2023/12/31 02:57:18;;;;;;;15.57;7.77;;;;;;;1.76;100.00;100039.34;4253319;28;26266;-75
2023/12/31 02:59:45;;;;;;;15.87;7.40;;;;;;;1.64;100.00;100052.53;4239377;28;20245;-74
2023/12/31 03:02:12;;;;;;;18.40;7.60;;;;;;;1.57;100.00;100060.06;4245045;28;20227;-75
2023/12/31 03:04:40;;;;;;;18.97;8.17;;;;;;;1.57;100.00;100060.06;4243463;28;20287;-75
2023/12/31 03:07:07;;;;;;;20.90;8.27;;;;;;;1.48;100.00;100057.97;4241175;28;20302;-78
2023/12/31 03:09:33;;;;;;;20.90;8.07;;;;;;;1.51;100.00;100062.28;4241408;28;20237;-74
2023/12/31 03:12:00;;;;;;;19.97;8.60;;;;;;;1.57;100.00;100061.91;4241795;28;20716;-78
2023/12/31 03:14:27;;;;;;;20.20;8.37;;;;;;;1.62;100.00;100074.94;4239616;28;22049;-72
2023/12/31 03:16:53;;;;;;;20.17;8.00;;;;;;;1.64;100.00;100076.56;4247959;28;20243;-73
2023/12/31 03:19:20;;;;;;;20.87;8.33;;;;;;;1.64;100.00;100084.56;4250328;28;25499;-76
2023/12/31 03:21:48;;;;;;;19.20;8.40;;;;;;;1.61;100.00;100079.41;4237802;28;20338;-71
2023/12/31 03:24:17;;;;;;;21.77;8.13;;;;;;;1.66;100.00;100081.78;4232618;28;20259;-74
2023/12/31 03:26:43;;;;;;;17.97;8.37;;;;;;;1.72;100.00;100086.72;4219130;28;20438;-76
2023/12/31 03:29:10;;;;;;;18.27;8.57;;;;;;;1.78;100.00;100093.47;4237382;28;23578;-74
2023/12/31 03:31:37;;;;;;;23.70;9.40;;;;;;;1.80;100.00;100092.41;4209546;28;21160;-77
2023/12/31 03:34:06;;;;;;;22.67;9.40;;;;;;;1.93;100.00;100087.13;4237989;28;20242;-73
2023/12/31 03:36:36;;;;;;;30.07;9.77;;;;;;;1.90;100.00;100082.84;4233930;28;20243;-73
2023/12/31 03:39:02;;;;;;;19.37;9.77;;;;;;;1.94;100.00;100083.50;4242834;28;25139;-76
2023/12/31 03:41:29;;;;;;;21.20;8.47;;;;;;;1.82;100.00;100087.84;4241304;28;21938;-75
2023/12/31 03:43:56;;;;;;;19.17;8.87;;;;;;;1.84;100.00;100090.41;4235819;28;20234;-75
2023/12/31 03:46:23;;;;;;;18.33;9.57;;;;;;;1.76;100.00;100085.56;4238316;28;20232;-77
2023/12/31 03:48:49;;;;;;;25.97;8.73;;;;;;;1.76;100.00;100088.25;4229737;28;20255;-74
2023/12/31 03:51:16;;;;;;;21.50;9.27;;;;;;;1.82;100.00;100094.97;4241023;28;20264;-75
2023/12/31 03:53:43;;;;;;;25.00;9.73;;;;;;;1.93;100.00;100089.81;4243183;28;20822;-75
2023/12/31 03:56:09;;;;;;;22.87;9.63;;;;;;;2.08;100.00;100081.75;4232338;28;20238;-77
2023/12/31 03:58:37;;;;;;;22.60;10.13;;;;;;;2.13;100.00;100077.81;4237156;28;20227;-77
2023/12/31 04:01:04;;;;;;;26.23;11.13;;;;;;;2.16;100.00;100085.59;4238575;28;20679;-74
2023/12/31 04:03:31;;;;;;;23.63;10.33;;;;;;;2.13;100.00;100088.50;4225805;28;20233;-77
2023/12/31 04:05:58;;;;;;;30.27;10.67;;;;;;;2.12;100.00;100097.47;4229015;28;21591;-74
2023/12/31 04:08:25;;;;;;;19.70;9.50;;;;;;;2.09;100.00;100099.47;4238537;28;20542;-75
2023/12/31 04:10:51;;;;;;;21.83;10.97;;;;;;;1.95;100.00;100095.91;4238731;28;20235;-77
2023/12/31 04:13:18;;;;;;;23.83;9.73;;;;;;;2.02;100.00;100093.66;4214488;28;20238;-73
2023/12/31 04:15:45;;;;;;;21.67;10.33;;;;;;;1.88;100.00;100098.09;4228898;28;20302;-73
2023/12/31 04:18:11;;;;;;;21.17;10.60;;;;;;;2.06;100.00;100096.03;4250565;28;20281;-75
2023/12/31 04:20:38;;;;;;;27.07;10.70;;;;;;;1.93;100.00;100089.81;4231239;28;20303;-75
2023/12/31 04:23:05;;;;;;;30.07;11.20;;;;;;;1.93;100.00;100094.31;4247159;28;21620;-72
2023/12/31 04:25:31;;;;;;;27.03;11.10;;;;;;;1.96;100.00;100091.41;4240123;28;20920;-74
2023/12/31 04:27:59;;;;;;;22.80;11.20;;;;;;;1.93;100.00;100084.47;4232532;28;20261;-75
2023/12/31 04:30:26;;;;;;;23.47;11.27;;;;;;;1.97;100.00;100085.97;4232432;28;20231;-73
2023/12/31 04:32:53;;;;;;;28.00;11.03;;;;;;;2.13;100.00;100095.63;4237466;28;20301;-72
2023/12/31 04:35:20;;;;;;;23.77;11.77;;;;;;;2.16;100.00;100087.44;4235732;28;23647;-75
2023/12/31 04:37:47;;;;;;;27.17;11.80;;;;;;;2.10;100.00;100090.50;4243863;28;20235;-74
2023/12/31 04:40:14;;;;;;;25.63;11.77;;;;;;;2.13;100.00;100099.19;4245275;28;20231;-76
2023/12/31 04:42:41;;;;;;;24.60;11.23;;;;;;;2.11;100.00;100095.75;4228096;28;21783;-73
2023/12/31 04:45:09;;;;;;;24.43;10.83;;;;;;;2.05;100.00;100096.16;4227584;28;20416;-75
2023/12/31 04:47:36;;;;;;;27.23;11.00;;;;;;;2.05;100.00;100096.16;4255977;28;20238;-75
2023/12/31 04:50:04;;;;;;;25.73;11.30;;;;;;;2.08;100.00;100095.94;4233545;28;20239;-73
2023/12/31 04:52:30;;;;;;;25.37;11.60;;;;;;;2.25;100.00;100094.84;4231030;28;22109;-75
2023/12/31 04:54:57;;;;;;;24.63;10.80;;;;;;;2.37;100.00;100093.16;4246065;28;22306;-74
2023/12/31 04:57:24;;;;;;;28.57;10.97;;;;;;;2.43;100.00;100100.75;4239837;28;20607;-76
2023/12/31 04:59:51;;;;;;;26.63;11.90;;;;;;;2.48;100.00;100090.59;4233653;28;20288;-74
2023/12/31 05:02:17;;;;;;;31.57;11.60;;;;;;;2.63;100.00;100082.50;4241442;28;22495;-75
2023/12/31 05:04:44;;;;;;;24.00;10.77;;;;;;;2.52;100.00;100069.88;4251037;28;20228;-75
2023/12/31 05:07:11;;;;;;;31.13;11.90;;;;;;;2.37;100.00;100074.47;4246834;28;21760;-77
2023/12/31 05:09:38;;;;;;;28.40;11.93;;;;;;;2.31;100.00;100082.84;4236013;28;20498;-75
2023/12/31 05:12:05;;;;;;;34.47;11.30;;;;;;;2.06;100.00;100073.84;4237963;28;21453;-73
2023/12/31 05:14:31;;;;;;;28.93;11.17;;;;;;;2.09;100.00;100083.47;4220420;28;22764;-73
2023/12/31 05:16:58;;;;;;;26.83;11.63;;;;;;;2.08;100.00;100076.41;4217535;28;20238;-74
2023/12/31 05:19:24;;;;;;;25.33;10.30;;;;;;;2.08;100.00;100079.91;4237355;28;20840;-79
2023/12/31 05:21:51;;;;;;;22.77;10.53;;;;;;;2.14;100.00;100076.84;4242091;28;20226;-72
2023/12/31 05:24:17;;;;;;;26.07;10.27;;;;;;;2.21;100.00;100080.84;4216938;28;20231;-76
2023/12/31 05:26:44;;;;;;;25.77;9.83;;;;;;;2.15;100.00;100080.38;4236356;28;20269;-74
2023/12/31 05:29:10;;;;;;;28.23;10.57;;;;;;;2.04;100.00;100073.91;4244283;28;20236;-75
2023/12/31 05:31:37;;;;;;;27.03;10.93;;;;;;;2.12;100.00;100068.09;4236582;28;23542;-77
2023/12/31 05:34:04;;;;;;;26.20;11.13;;;;;;;1.90;100.00;100084.66;4234408;28;20223;-76
2023/12/31 05:36:31;;;;;;;31.73;11.70;;;;;;;1.98;100.00;100082.34;4227702;28;20469;-73
2023/12/31 05:38:57;;;;;;;24.17;12.20;;;;;;;2.16;100.00;100082.94;4237169;28;22020;-74
2023/12/31 05:41:24;;;;;;;31.43;12.47;;;;;;;2.01;100.00;100081.28;4238492;28;20230;-72
2023/12/31 05:43:51;;;;;;;33.20;12.43;;;;;;;2.13;100.00;100084.94;4238966;28;20224;-72
2023/12/31 05:46:18;;;;;;;29.97;11.67;;;;;;;1.86;100.00;100088.50;4244385;28;21717;-78
2023/12/31 05:48:44;;;;;;;30.27;12.87;;;;;;;1.80;100.00;100084.41;4236303;28;20650;-75
2023/12/31 05:51:11;;;;;;;29.90;11.77;;;;;;;1.99;100.00;100085.88;4246285;28;20287;-74
2023/12/31 05:53:37;;;;;;;35.17;12.57;;;;;;;1.91;100.00;100094.38;4243704;28;20227;-76
2023/12/31 05:56:04;;;;;;;30.67;12.30;;;;;;;1.84;100.00;100101.06;4243508;28;20932;-73
2023/12/31 05:58:31;;;;;;;29.23;12.10;;;;;;;1.73;100.00;100093.75;4250720;28;22377;-75
2023/12/31 06:00:58;;;;;;;34.70;13.27;;;;;;;1.75;100.00;100091.88;4245510;28;22296;-79
2023/12/31 06:03:25;;;;;;;31.33;14.40;;;;;;;1.78;100.00;100088.13;4243871;28;20239;-73
2023/12/31 06:05:51;;;;;;;40.40;15.57;;;;;;;1.65;100.00;100091.59;4238683;28;21491;-77
2023/12/31 06:08:18;;;;;;;34.70;15.70;;;;;;;1.76;100.00;100085.56;4224679;28;20273;-74
2023/12/31 06:10:44;;;;;;;38.07;16.00;;;;;;;1.63;100.00;100089.97;4240808;28;20383;-76
2023/12/31 06:13:11;;;;;;;41.30;17.57;;;;;;;1.67;100.00;100089.66;4236165;28;20336;-76
2023/12/31 06:15:37;;;;;;;44.30;18.03;;;;;;;1.63;100.00;100089.97;4238554;28;20479;-76
2023/12/31 06:18:04;;;;;;;40.30;18.37;;;;;;;1.70;100.00;100093.97;4241273;28;20294;-76
2023/12/31 06:20:31;;;;;;;42.70;18.20;;;;;;;1.71;100.00;100093.00;4237887;28;20231;-75
2023/12/31 06:22:57;;;;;;;41.97;17.53;;;;;;;1.61;100.00;100090.06;4255524;28;20346;-76
2023/12/31 06:25:24;;;;;;;50.47;18.47;;;;;;;1.68;100.00;100085.22;4229885;28;21174;-74
2023/12/31 06:27:51;;;;;;;40.83;18.50;;;;;;;1.77;100.00;100095.28;4239424;28;20251;-73
2023/12/31 06:30:18;;;;;;;42.27;18.23;;;;;;;1.70;100.00;100096.66;4238882;28;20238;-79
2023/12/31 06:32:44;;;;;;;43.57;19.10;;;;;;;1.52;100.00;100083.53;4232912;28;20309;-75
2023/12/31 06:35:11;;;;;;;44.83;17.10;;;;;;;1.56;100.00;100085.03;4247998;28;25882;-77
2023/12/31 06:37:37;;;;;;;43.43;17.87;;;;;;;1.60;100.00;100083.03;4232899;28;20239;-76
2023/12/31 06:40:05;;;;;;;43.03;18.10;;;;;;;1.49;100.00;100075.72;4239484;28;20235;-74
2023/12/31 06:42:31;;;;;;;42.87;16.53;;;;;;;1.53;100.00;100082.56;4247378;28;21429;-76
2023/12/31 06:44:58;;;;;;;33.17;16.47;;;;;;;1.51;100.00;100076.47;4243721;28;20239;-75
2023/12/31 06:47:27;;;;;;;43.17;17.93;;;;;;;1.54;100.00;100080.75;4248724;28;21522;-78
2023/12/31 06:49:55;;;;;;;42.77;17.83;;;;;;;1.49;100.00;100081.03;4245134;28;20271;-76
2023/12/31 06:52:21;;;;;;;39.20;17.63;;;;;;;1.41;100.00;100086.00;4277507;28;20229;-76
2023/12/31 06:54:48;;;;;;;36.97;16.90;;;;;;;1.35;100.00;100084.59;4272340;28;20242;-77
2023/12/31 06:57:15;;;;;;;35.50;16.17;;;;;;;1.43;100.00;100086.78;4297527;28;20239;-75
2023/12/31 06:59:41;;;;;;;36.00;16.27;;;;;;;1.49;100.00;100088.19;4278760;28;21835;-74
2023/12/31 07:02:08;;;;;;;36.90;16.53;;;;;;;1.50;100.00;100082.75;4260700;28;20229;-75
2023/12/31 07:04:35;;;;;;;43.93;16.47;;;;;;;1.48;100.00;100081.16;4268422;28;20353;-75
2023/12/31 07:07:02;;;;;;;41.17;16.53;;;;;;;1.50;100.00;100082.75;4288808;28;20234;-73
2023/12/31 07:09:29;;;;;;;38.97;16.50;;;;;;;1.53;100.00;100077.25;4292120;28;20420;-76
2023/12/31 07:11:55;;;;;;;38.63;16.20;;;;;;;1.58;100.00;100077.78;4336560;28;20371;-73
2023/12/31 07:14:24;;;;;;;38.53;16.17;;;;;;;1.63;100.00;100081.97;4256143;28;20227;-72
2023/12/31 07:16:51;;;;;;;39.33;17.40;;;;;;;1.65;100.00;100075.59;4264775;28;20227;-70
2023/12/31 07:19:19;;;;;;;40.90;17.57;;;;;;;1.76;100.00;100082.91;4260161;28;20684;-72
2023/12/31 07:21:46;;;;;;;38.60;16.93;;;;;;;1.84;100.00;100075.25;4290271;28;20241;-69
2023/12/31 07:24:13;;;;;;;51.40;20.53;;;;;;;1.78;100.00;100077.47;4356456;28;21116;-71
2023/12/31 07:26:40;;;;;;;49.73;18.87;;;;;;;1.87;100.00;100080.38;4278640;28;20785;-72
2023/12/31 07:29:06;;;;;;;42.60;19.27;;;;;;;2.06;100.00;100081.84;4259331;28;20692;-70
2023/12/31 07:31:38;;;;;;;45.73;18.60;;;;;;;2.16;100.00;100090.94;4238312;28;20596;-72
2023/12/31 07:34:05;;;;;;;40.23;18.43;;;;;;;2.22;100.00;100089.69;4247484;28;21674;-71
2023/12/31 07:36:32;;;;;;;39.20;18.57;;;;;;;2.37;100.00;100098.50;4246759;28;22508;-73
2023/12/31 07:39:03;;;;;;;47.47;20.00;;;;;;;2.15;100.00;100091.91;4262593;28;20235;-73
2023/12/31 07:41:34;;;;;;;45.20;19.10;;;;;;;2.06;100.00;100090.69;4309776;28;25575;-71
2023/12/31 07:44:00;;;;;;;43.20;18.97;;;;;;;2.02;100.00;100093.66;4262452;28;20277;-70
2023/12/31 07:46:28;;;;;;;36.40;17.57;;;;;;;2.18;100.00;100085.53;4263363;28;20526;-71
2023/12/31 07:48:56;;;;;;;36.53;17.83;;;;;;;2.06;100.00;100084.53;4255847;28;20235;-71
2023/12/31 07:51:23;;;;;;;40.63;17.33;;;;;;;2.28;100.00;100091.94;4243004;28;20321;-72
2023/12/31 07:53:51;;;;;;;39.27;18.13;;;;;;;2.29;100.00;100096.31;4240608;28;20538;-71
2023/12/31 07:56:18;;;;;;;41.07;17.97;;;;;;;2.22;100.00;100095.03;4265170;28;20239;-72
2023/12/31 07:58:45;;;;;;;33.70;14.43;;;;;;;2.36;100.00;100094.13;4254750;28;20521;-72
2023/12/31 08:01:12;;;;;;;32.57;13.20;;;;;;;2.58;100.00;100101.50;4253142;28;21092;-75
2023/12/31 08:03:39;;;;;;;34.10;14.97;;;;;;;2.63;99.42;100095.88;4250235;28;20530;-73
2023/12/31 08:06:05;;;;;;;35.43;13.70;;;;;;;2.65;99.65;100092.13;4248166;28;21585;-75
2023/12/31 08:08:32;;;;;;;40.53;14.77;;;;;;;2.72;99.76;100092.56;4251168;28;21361;-71
2023/12/31 08:11:00;;;;;;;28.50;13.40;;;;;;;2.90;98.86;100100.28;4270743;28;21896;-72
2023/12/31 08:13:29;;;;;;;31.10;12.10;;;;;;;2.92;97.48;100099.22;4262482;28;20258;-70
2023/12/31 08:15:57;;;;;;;29.23;12.43;;;;;;;2.86;96.67;100102.31;4272164;28;20862;-74
2023/12/31 08:18:23;;;;;;;33.83;13.03;;;;;;;2.87;97.25;100097.81;4267253;28;20238;-73
2023/12/31 08:20:50;;;;;;;31.23;12.67;;;;;;;2.91;97.78;100110.03;4247121;28;20297;-71
2023/12/31 08:23:19;;;;;;;33.70;12.60;;;;;;;2.87;97.06;100103.16;4268875;28;25559;-69
2023/12/31 08:25:46;;;;;;;37.40;13.53;;;;;;;2.85;96.86;100104.13;4271018;28;22057;-69
2023/12/31 08:28:12;;;;;;;29.03;12.33;;;;;;;2.98;96.08;100101.44;4241104;28;20261;-72
2023/12/31 08:30:39;;;;;;;29.13;12.93;;;;;;;3.02;96.11;100104.75;4245615;28;20222;-71
2023/12/31 08:33:06;;;;;;;35.87;13.97;;;;;;;3.06;95.86;100114.28;4252791;28;20328;-70
2023/12/31 08:35:33;;;;;;;34.30;13.63;;;;;;;2.98;96.33;100103.28;4296543;28;20344;-71
2023/12/31 08:38:00;;;;;;;28.23;12.80;;;;;;;3.00;97.09;100096.88;4281091;28;20234;-70
2023/12/31 08:40:26;;;;;;;30.93;12.37;;;;;;;3.36;96.01;100098.84;4268956;28;20986;-70
2023/12/31 08:42:53;;;;;;;35.20;15.73;;;;;;;3.63;94.10;100104.06;4285367;28;20810;-71
2023/12/31 08:45:20;;;;;;;31.27;13.83;;;;;;;3.55;93.52;100103.75;4277796;28;21752;-70
2023/12/31 08:47:47;;;;;;;35.27;13.27;;;;;;;3.89;92.96;100102.16;4263507;28;23367;-72
2023/12/31 08:50:14;;;;;;;29.67;12.67;;;;;;;4.21;91.94;100106.06;4227422;28;20292;-72
2023/12/31 08:52:45;;;;;;;30.93;11.40;;;;;;;4.49;90.67;100098.66;4253093;28;20309;-71
2023/12/31 08:55:16;;;;;;;27.27;10.93;;;;;;;4.78;89.80;100103.63;4263008;28;20242;-70
2023/12/31 08:57:47;;;;;;;31.77;13.13;;;;;;;4.91;88.46;100105.22;4252221;28;20239;-70
2023/12/31 09:00:17;;;;;;;28.57;10.70;;;;;;;5.38;85.89;100110.50;4246703;28;20287;-69
2023/12/31 09:02:45;;;;;;;28.97;12.23;;;;;;;5.50;85.50;100113.19;4254896;28;20262;-69
2023/12/31 09:05:12;;;;;;;27.27;10.60;;;;;;;6.27;83.41;100111.50;4285597;28;20290;-72
2023/12/31 09:07:42;;;;;;;24.00;9.73;;;;;;;7.14;80.72;100105.88;4245874;28;20226;-70
2023/12/31 09:10:09;;;;;;;21.13;9.20;;;;;;;7.77;75.55;100104.00;4257004;28;22258;-71
2023/12/31 09:12:36;;;;;;;21.73;8.60;;;;;;;7.87;73.03;100106.72;4282445;28;20233;-69
2023/12/31 09:15:04;;;;;;;24.60;9.40;;;;;;;7.77;72.74;100104.88;4246403;28;20301;-72
2023/12/31 09:17:31;;;;;;;23.60;9.43;;;;;;;7.93;70.99;100101.63;4294712;28;20329;-71
2023/12/31 09:20:05;;;;;;;22.33;9.27;;;;;;;7.38;72.35;100093.09;4302753;28;25965;-71
2023/12/31 09:22:33;;;;;;;20.30;8.90;;;;;;;7.89;72.47;100089.41;4278175;28;20233;-71
2023/12/31 09:24:59;;;;;;;24.53;8.93;;;;;;;8.16;69.67;100090.59;4290391;28;22235;-69
2023/12/31 09:27:26;;;;;;;26.07;9.40;;;;;;;7.85;69.65;100085.31;4270805;28;20230;-73
2023/12/31 09:29:53;;;;;;;25.30;9.27;;;;;;;8.06;70.46;100084.34;4303058;28;20300;-70
2023/12/31 09:32:20;;;;;;;26.37;9.67;;;;;;;8.59;68.18;100088.53;4295016;28;20259;-71
2023/12/31 09:34:47;;;;;;;20.37;8.63;;;;;;;9.25;66.37;100083.28;4253234;28;20230;-72
2023/12/31 09:37:18;;;;;;;19.83;9.30;;;;;;;9.63;63.59;100087.66;4248733;28;20319;-71
2023/12/31 09:39:46;;;;;;;19.83;8.83;;;;;;;9.93;63.31;100082.94;4284311;28;20246;-73
2023/12/31 09:42:17;;;;;;;17.80;7.37;;;;;;;9.87;62.47;100088.06;4258887;28;22582;-72
2023/12/31 09:44:44;;;;;;;20.90;8.53;;;;;;;9.27;63.61;100081.25;4231782;28;20236;-71
2023/12/31 09:47:11;;;;;;;20.37;8.80;;;;;;;8.54;65.69;100070.06;4260466;28;20271;-70
2023/12/31 09:49:39;;;;;;;21.17;8.57;;;;;;;8.27;67.01;100067.22;4294836;28;21680;-71
2023/12/31 09:52:08;;;;;;;23.87;9.33;;;;;;;7.99;69.14;100056.25;4272596;28;21776;-71
2023/12/31 09:54:37;;;;;;;24.30;9.20;;;;;;;8.30;68.28;100061.50;4248789;28;21148;-70
2023/12/31 09:57:04;;;;;;;29.40;9.20;;;;;;;7.89;69.19;100054.38;4240991;28;21130;-72
2023/12/31 09:59:31;;;;;;;23.40;9.37;;;;;;;7.85;70.15;100046.75;4257186;28;20296;-72
2023/12/31 10:02:02;;;;;;;24.30;9.23;;;;;;;7.43;71.25;100048.59;4277468;28;20234;-72
2023/12/31 10:04:30;;;;;;;21.67;9.27;;;;;;;6.80;73.84;100046.06;4249304;28;21715;-76
2023/12/31 10:06:57;;;;;;;25.00;9.50;;;;;;;7.83;70.62;100046.84;4250329;28;20242;-74
2023/12/31 10:09:27;;;;;;;19.97;8.70;;;;;;;7.48;71.79;100044.66;4298076;28;21604;-74
2023/12/31 10:11:58;;;;;;;24.23;9.53;;;;;;;6.93;72.95;100045.84;4284401;28;21102;-75
2023/12/31 10:14:25;;;;;;;23.87;9.37;;;;;;;6.60;75.18;100045.09;4279319;28;20305;-76
2023/12/31 10:16:52;;;;;;;23.47;9.47;;;;;;;6.68;75.41;100049.81;4259912;28;20439;-72
2023/12/31 10:19:19;;;;;;;20.57;9.50;;;;;;;7.14;74.20;100041.28;4281527;28;20236;-76
2023/12/31 10:21:46;;;;;;;20.43;9.60;;;;;;;7.78;71.65;100035.66;4318036;28;20311;-76
2023/12/31 10:24:13;;;;;;;26.57;10.00;;;;;;;8.19;70.05;100036.41;4284923;28;21005;-75
2023/12/31 10:26:40;;;;;;;22.30;8.87;;;;;;;8.30;69.36;100042.63;4256602;28;20865;-71
2023/12/31 10:29:06;;;;;;;18.77;8.70;;;;;;;9.13;66.88;100031.28;4265527;28;20223;-74
2023/12/31 10:31:33;;;;;;;20.60;8.67;;;;;;;9.46;64.49;100035.25;4251181;28;20239;-74
2023/12/31 10:34:14;;;;;;;19.77;8.57;;;;;;;9.26;64.29;100030.94;4252689;28;23019;-69
2023/12/31 10:36:44;;;;;;;17.53;8.93;;;;;;;9.55;63.69;100028.09;4261361;28;20491;-74
2023/12/31 10:39:38;;;;;;;20.83;8.87;;;;;;;9.94;62.36;100026.97;4277474;28;20241;-73
2023/12/31 10:42:06;;;;;;;26.70;8.53;;;;;;;9.31;64.14;100013.28;4265366;28;20302;-74
2023/12/31 10:44:35;;;;;;;21.30;9.10;;;;;;;10.18;62.88;100022.81;4236582;28;20239;-72
2023/12/31 10:47:11;;;;;;;22.43;8.43;;;;;;;10.54;60.94;100007.44;4263550;28;20251;-74
2023/12/31 10:49:48;;;;;;;22.30;8.40;;;;;;;10.14;60.99;100006.91;4290015;28;22726;-70
2023/12/31 10:52:16;;;;;;;18.30;7.70;;;;;;;10.06;63.98;100005.97;4283257;28;20430;-71
2023/12/31 10:54:47;;;;;;;24.33;7.90;;;;;;;9.79;61.88;100014.00;4230877;28;20303;-72
2023/12/31 10:57:20;;;;;;;20.97;8.27;;;;;;;9.47;63.85;100001.84;4252253;28;20233;-72
2023/12/31 10:59:48;;;;;;;29.73;10.03;;;;;;;8.24;67.84;99993.69;4268779;28;20238;-73
2023/12/31 11:02:17;;;;;;;26.20;9.70;;;;;;;8.50;67.82;99987.69;4250190;28;20589;-74
2023/12/31 11:04:45;;;;;;;23.73;9.47;;;;;;;8.17;67.87;99972.81;4285798;28;20242;-75
2023/12/31 11:07:14;;;;;;;24.40;9.00;;;;;;;8.03;68.85;99977.66;4274926;28;20304;-74
2023/12/31 11:09:43;;;;;;;27.93;10.23;;;;;;;7.54;70.83;99983.00;4234249;28;22321;-74
2023/12/31 11:12:11;;;;;;;21.97;8.90;;;;;;;7.46;71.77;99977.47;4263522;28;20238;-69
2023/12/31 11:14:41;;;;;;;21.10;9.30;;;;;;;7.26;72.49;99977.41;4361363;28;20966;-74
2023/12/31 11:17:11;;;;;;;23.47;9.07;;;;;;;6.62;74.58;99974.03;4322155;28;23633;-73